11:42
Airports
Links
Donate
Help keep this website running!
PayPal
Bitcoin
METAR
EGLL 201120Z AUTO 28010KT 240V300 9999 BKN048 19/08 Q1024
Current Weather Conditions at EGLL
VFR 11:20:00 20-08-17
Automated station, no observer
Altimeter:30.24 hg
Temp:19.0°c 66°f
Dew point:8.0°c 46°f
Wind:10 knots, 11.5 mph, 5 m/s, from 280°
Visibility:6.21 statute miles
4800(BKN) Broken
Past METAR reports
VFR 10:50:00 20-08-17
Automated station, no observer
Altimeter:30.24 hg
Temp:19.0°c 66°f
Dew point:9.0°c 48°f
Wind:9 knots, 10.4 mph, 5 m/s, from 280°
Visibility:6.21 statute miles
4300(BKN) Broken
No significant weather changes expected within 2 hours.
EGLL 201050Z AUTO 28009KT 9999 BKN043 19/09 Q1024 NOSIG
VFR 10:20:00 20-08-17
Automated station, no observer
Altimeter:30.24 hg
Temp:19.0°c 66°f
Dew point:8.0°c 46°f
Wind:9 knots, 10.4 mph, 5 m/s, from 260°
Visibility:6.21 statute miles
4900(BKN) Broken
4100(FEW) A few
No significant weather changes expected within 2 hours.
EGLL 201020Z AUTO 26009KT 210V290 9999 FEW041 BKN049 19/08 Q1024 NOSIG
VFR 09:50:00 20-08-17
Automated station, no observer
Altimeter:30.24 hg
Temp:18.0°c 64°f
Dew point:10.0°c 50°f
Wind:10 knots, 11.5 mph, 5 m/s, from 270°
Visibility:6.21 statute miles
3800(FEW) A few
No significant weather changes expected within 2 hours.
EGLL 200950Z AUTO 27010KT 9999 FEW038 18/10 Q1024 NOSIG
VFR 09:20:00 20-08-17
Automated station, no observer
Altimeter:30.24 hg
Temp:17.0°c 63°f
Dew point:10.0°c 50°f
Wind:6 knots, 6.9 mph, 3 m/s, from 270°
Visibility:6.21 statute miles
(CLR) Clear
No significant weather changes expected within 2 hours.
EGLL 200920Z AUTO 27006KT 220V310 9999 NCD 17/10 Q1024 NOSIG
VFR 08:50:00 20-08-17
Automated station, no observer
Altimeter:30.24 hg
Temp:16.0°c 61°f
Dew point:11.0°c 52°f
Wind:7 knots, 8.1 mph, 4 m/s, from 270°
Visibility:6.21 statute miles
(CLR) Clear
No significant weather changes expected within 2 hours.
EGLL 200850Z AUTO 27007KT 9999 NCD 16/11 Q1024 NOSIG
VFR 08:20:00 20-08-17
Automated station, no observer
Altimeter:30.24 hg
Temp:15.0°c 59°f
Dew point:11.0°c 52°f
Wind:7 knots, 8.1 mph, 4 m/s, from 270°
Visibility:6.21 statute miles
(CLR) Clear
EGLL 200820Z AUTO 27007KT 9999 NCD 15/11 Q1024
TAF
TAF EGLL 201054Z 2012/2118 24010KT 9999 SCT040 TEMPO 2018/2101 6000 RA BKN012 BECMG 2019/2021 13006KT PROB40 TEMPO 2020/2101 3500 RADZ BKN008 BECMG 2101/2104 7000 SCT003 BKN006 PROB40 TEMPO 2102/2110 3000 -RADZ BKN003 BECMG 2110/2113 9999 SCT012 BKN020
Forecast at EGLL
12:00 20-08-17 to 19:00 20-08-17
Wind:10 Knots from 240°
Visibility:6.21 statute miles
4000SCT Scattered
TEMPO 18:00 20-08-17 to 01:00 21-08-17
RA
Visibility:3.73 statute miles
1200BKN Broken
BECMG 19:00 20-08-17 to 01:00 21-08-17
Wind:6 Knots from 130°
Visibility:6.21 statute miles
4000SCT Scattered
TEMPO 20:00 20-08-17 to 01:00 21-08-17
40% RA DZ
Visibility:2.17 statute miles
800BKN Broken
BECMG 01:00 21-08-17 to 10:00 21-08-17
Wind:6 Knots from 130°
Visibility:4.35 statute miles
300SCT Scattered
600BKN Broken
TEMPO 02:00 21-08-17 to 10:00 21-08-17
40% -RA -DZ
Visibility:1.86 statute miles
300BKN Broken
BECMG 10:00 21-08-17 to 18:00 21-08-17
Wind:6 Knots from 130°
Visibility:6.21 statute miles
1200SCT Scattered
2000BKN Broken